createdAt,value
2016-05-24T00:00:55.998Z,1006.69
2016-05-24T00:01:55.968Z,1006.65
2016-05-24T00:02:55.957Z,1006.66
2016-05-24T00:03:55.943Z,1006.61
2016-05-24T00:04:55.931Z,1006.61
2016-05-24T00:05:55.917Z,1006.62
2016-05-24T00:06:55.904Z,1006.61
2016-05-24T00:07:55.891Z,1006.62
2016-05-24T00:08:55.878Z,1006.59
2016-05-24T00:09:55.850Z,1006.58
2016-05-24T00:10:55.837Z,1006.63
2016-05-24T00:11:55.824Z,1006.59
2016-05-24T00:12:55.811Z,1006.64
2016-05-24T00:13:55.798Z,1006.6
2016-05-24T00:14:55.785Z,1006.62
2016-05-24T00:15:55.772Z,1006.56
2016-05-24T00:16:55.759Z,1006.6
2016-05-24T00:17:55.731Z,1006.61
2016-05-24T00:18:55.718Z,1006.57
2016-05-24T00:19:56.096Z,1006.58
2016-05-24T00:20:55.692Z,1006.55
2016-05-24T00:21:55.680Z,1006.54
2016-05-24T00:22:55.666Z,1006.57
2016-05-24T00:23:55.653Z,1006.62
2016-05-24T00:24:55.640Z,1006.59
2016-05-24T00:25:55.627Z,1006.6
2016-05-24T00:26:55.614Z,1006.59
2016-05-24T00:27:55.586Z,1006.59
2016-05-24T00:28:55.573Z,1006.6
2016-05-24T00:29:55.560Z,1006.63
2016-05-24T00:30:55.546Z,1006.57
2016-05-24T00:31:55.535Z,1006.6
2016-05-24T00:32:55.521Z,1006.63
2016-05-24T00:33:55.509Z,1006.58
2016-05-24T00:34:55.479Z,1006.62
2016-05-24T00:35:55.467Z,1006.61
2016-05-24T00:36:55.453Z,1006.63
2016-05-24T00:37:55.440Z,1006.66
2016-05-24T00:38:55.428Z,1006.63
2016-05-24T00:39:55.415Z,1006.68
2016-05-24T00:40:55.403Z,1006.71
2016-05-24T00:41:55.389Z,1006.72
2016-05-24T00:42:55.376Z,1006.76
2016-05-24T00:43:55.347Z,1006.75
2016-05-24T00:44:55.334Z,1006.72
2016-05-24T00:45:55.322Z,1006.77
2016-05-24T00:46:55.309Z,1006.75
2016-05-24T00:47:55.296Z,1006.74
2016-05-24T00:48:55.283Z,1006.78
2016-05-24T00:49:55.255Z,1006.73
2016-05-24T00:50:55.242Z,1006.74
2016-05-24T00:51:55.228Z,1006.73
2016-05-24T00:52:55.216Z,1006.78
2016-05-24T00:53:55.202Z,1006.76
2016-05-24T00:54:55.190Z,1006.74
2016-05-24T00:55:55.177Z,1006.75
2016-05-24T00:56:55.164Z,1006.66
2016-05-24T00:57:55.151Z,1006.7
2016-05-24T00:58:55.326Z,1006.71
2016-05-24T00:59:55.109Z,1006.68
2016-05-24T01:00:55.107Z,1006.71
2016-05-24T01:01:55.123Z,1006.72
2016-05-24T01:02:55.138Z,1006.68
2016-05-24T01:03:55.154Z,1006.7
2016-05-24T01:04:55.169Z,1006.73
2016-05-24T01:05:55.177Z,1006.65
2016-05-24T01:06:55.174Z,1006.75
2016-05-24T01:07:55.155Z,1006.78
2016-05-24T01:08:55.154Z,1006.77
2016-05-24T01:09:55.151Z,1006.76
2016-05-24T01:10:55.145Z,1006.82
2016-05-24T01:11:55.136Z,1006.78
2016-05-24T01:12:55.127Z,1006.79
2016-05-24T01:13:55.102Z,1006.76
2016-05-24T01:14:55.499Z,1006.75
2016-05-24T01:15:55.084Z,1006.78
2016-05-24T01:16:55.071Z,1006.76
2016-05-24T01:17:55.059Z,1006.8
2016-05-24T01:18:55.048Z,1006.77
2016-05-24T01:19:55.035Z,1006.75
2016-05-24T01:20:55.023Z,1006.74
2016-05-24T01:21:54.996Z,1006.75
2016-05-24T01:22:54.983Z,1006.76
2016-05-24T01:23:54.971Z,1006.71
2016-05-24T01:24:54.957Z,1006.7
2016-05-24T01:25:54.946Z,1006.72
2016-05-24T01:26:54.932Z,1006.65
2016-05-24T01:27:54.920Z,1006.68
2016-05-24T01:28:54.891Z,1006.67
2016-05-24T01:29:54.880Z,1006.67
2016-05-24T01:30:54.866Z,1006.67
2016-05-24T01:31:54.854Z,1006.69
2016-05-24T01:32:54.842Z,1006.65
2016-05-24T01:33:54.828Z,1006.65
2016-05-24T01:34:54.814Z,1006.61
2016-05-24T01:35:54.802Z,1006.65
2016-05-24T01:36:54.773Z,1006.64
2016-05-24T01:37:54.761Z,1006.63
2016-05-24T01:38:54.748Z,1006.6
2016-05-24T01:39:54.735Z,1006.6
2016-05-24T01:40:54.722Z,1006.62
2016-05-24T01:41:54.708Z,1006.61
2016-05-24T01:42:54.696Z,1006.61
2016-05-24T01:43:54.667Z,1006.56
2016-05-24T01:44:54.655Z,1006.57
2016-05-24T01:45:54.641Z,1006.58
2016-05-24T01:46:54.629Z,1006.54
2016-05-24T01:47:54.615Z,1006.58
2016-05-24T01:48:54.602Z,1006.54
2016-05-24T01:49:54.590Z,1006.55
2016-05-24T01:50:54.562Z,1006.55
2016-05-24T01:51:54.564Z,1006.56
2016-05-24T01:52:54.535Z,1006.53
2016-05-24T01:53:54.522Z,1006.5
2016-05-24T01:54:54.509Z,1006.5
2016-05-24T01:55:54.496Z,1006.46
2016-05-24T01:56:54.484Z,1006.44
2016-05-24T01:57:54.470Z,1006.51
2016-05-24T01:58:54.458Z,1006.49
2016-05-24T01:59:54.429Z,1006.46
2016-05-24T02:00:54.417Z,1006.48
2016-05-24T02:01:54.403Z,1006.5
2016-05-24T02:02:54.390Z,1006.51
2016-05-24T02:03:54.377Z,1006.46
2016-05-24T02:04:54.364Z,1006.51
2016-05-24T02:05:54.335Z,1006.45
2016-05-24T02:06:54.323Z,1006.46
2016-05-24T02:07:54.311Z,1006.46
2016-05-24T02:08:54.297Z,1006.45
2016-05-24T02:09:54.283Z,1006.42
2016-05-24T02:10:54.271Z,1006.4
2016-05-24T02:11:54.258Z,1006.4
2016-05-24T02:12:54.246Z,1006.46
2016-05-24T02:13:54.217Z,1006.4
2016-05-24T02:14:54.329Z,1006.45
2016-05-24T02:15:54.191Z,1006.49
2016-05-24T02:16:54.177Z,1006.43
2016-05-24T02:17:54.165Z,1006.44
2016-05-24T02:18:54.152Z,1006.52
2016-05-24T02:19:54.139Z,1006.5
2016-05-24T02:20:54.111Z,1006.53
2016-05-24T02:21:54.098Z,1006.57
2016-05-24T02:22:54.084Z,1006.52
2016-05-24T02:23:54.071Z,1006.55
2016-05-24T02:24:54.059Z,1006.56
2016-05-24T02:25:54.046Z,1006.57
2016-05-24T02:26:54.033Z,1006.56
2016-05-24T02:27:54.004Z,1006.53
2016-05-24T02:28:53.992Z,1006.54
2016-05-24T02:29:53.979Z,1006.5
2016-05-24T02:30:53.965Z,1006.55
2016-05-24T02:31:53.953Z,1006.54
2016-05-24T02:32:53.939Z,1006.54
2016-05-24T02:33:53.911Z,1006.55
2016-05-24T02:34:53.897Z,1006.56
2016-05-24T02:35:53.901Z,1006.55
2016-05-24T02:36:53.872Z,1006.53
2016-05-24T02:37:53.859Z,1006.51
2016-05-24T02:38:53.846Z,1006.49
2016-05-24T02:39:53.833Z,1006.51
2016-05-24T02:40:53.821Z,1006.49
2016-05-24T02:41:53.792Z,1006.54
2016-05-24T02:42:53.780Z,1006.55
2016-05-24T02:43:53.766Z,1006.54
2016-05-24T02:44:53.752Z,1006.54
2016-05-24T02:45:53.740Z,1006.59
2016-05-24T02:46:53.727Z,1006.55
2016-05-24T02:47:53.715Z,1006.52
2016-05-24T02:48:53.702Z,1006.52
2016-05-24T02:49:53.673Z,1006.51
2016-05-24T02:50:53.723Z,1006.51
2016-05-24T02:51:53.646Z,1006.52
2016-05-24T02:52:53.634Z,1006.54
2016-05-24T02:53:53.621Z,1006.55
2016-05-24T02:54:53.593Z,1006.61
2016-05-24T02:55:53.579Z,1006.55
2016-05-24T02:56:53.567Z,1006.55
2016-05-24T02:57:53.554Z,1006.54
2016-05-24T02:58:53.541Z,1006.59
2016-05-24T02:59:53.528Z,1006.56
2016-05-24T03:00:53.500Z,1006.62
2016-05-24T03:01:53.502Z,1006.57
2016-05-24T03:02:53.473Z,1006.57
2016-05-24T03:03:53.461Z,1006.62
2016-05-24T03:04:53.448Z,1006.63
2016-05-24T03:05:53.434Z,1006.57
2016-05-24T03:06:53.422Z,1006.58
2016-05-24T03:07:53.409Z,1006.6
2016-05-24T03:08:53.380Z,1006.56
2016-05-24T03:09:53.367Z,1006.55
2016-05-24T03:10:53.355Z,1006.65
2016-05-24T03:11:53.341Z,1006.62
2016-05-24T03:12:53.328Z,1006.56
2016-05-24T03:13:53.315Z,1006.58
2016-05-24T03:14:53.287Z,1006.58
2016-05-24T03:15:53.274Z,1006.55
2016-05-24T03:16:53.261Z,1006.63
2016-05-24T03:17:53.249Z,1006.59
2016-05-24T03:18:53.235Z,1006.61
2016-05-24T03:19:53.221Z,1006.6
2016-05-24T03:20:53.209Z,1006.62
2016-05-24T03:21:53.181Z,1006.61
2016-05-24T03:22:53.168Z,1006.6
2016-05-24T03:23:53.155Z,1006.61
2016-05-24T03:24:53.142Z,1006.62
2016-05-24T03:25:53.129Z,1006.62
2016-05-24T03:26:53.116Z,1006.65
2016-05-24T03:27:53.103Z,1006.64
2016-05-24T03:28:53.075Z,1006.66
2016-05-24T03:29:53.062Z,1006.64
2016-05-24T03:30:53.048Z,1006.66
2016-05-24T03:31:53.036Z,1006.7
2016-05-24T03:32:53.023Z,1006.73
2016-05-24T03:33:53.009Z,1006.64
2016-05-24T03:34:52.981Z,1006.68
2016-05-24T03:35:52.969Z,1006.68
2016-05-24T03:36:52.955Z,1006.66
2016-05-24T03:37:52.943Z,1006.69
2016-05-24T03:38:52.930Z,1006.65
2016-05-24T03:39:52.917Z,1006.64
2016-05-24T03:40:52.888Z,1006.64
2016-05-24T03:41:52.875Z,1006.64
2016-05-24T03:42:52.862Z,1006.68
2016-05-24T03:43:52.850Z,1006.63
2016-05-24T03:44:52.836Z,1006.66
2016-05-24T03:45:52.824Z,1006.64
2016-05-24T03:46:52.794Z,1006.69
2016-05-24T03:47:52.782Z,1006.67
2016-05-24T03:48:52.784Z,1006.69
2016-05-24T03:49:52.757Z,1006.74
2016-05-24T03:50:52.743Z,1006.77
2016-05-24T03:51:52.730Z,1006.77
2016-05-24T03:52:52.717Z,1006.79
2016-05-24T03:53:52.689Z,1006.81
2016-05-24T03:54:52.676Z,1006.84
2016-05-24T03:55:52.663Z,1006.85
2016-05-24T03:56:52.650Z,1006.87
2016-05-24T03:57:52.637Z,1006.87
2016-05-24T03:58:52.624Z,1006.9
2016-05-24T03:59:52.595Z,1006.88
2016-05-24T04:00:52.582Z,1006.89
2016-05-24T04:01:52.570Z,1006.89
2016-05-24T04:02:52.556Z,1006.89
2016-05-24T04:03:52.544Z,1006.88
2016-05-24T04:04:52.531Z,1006.9
2016-05-24T04:05:52.503Z,1006.88
2016-05-24T04:06:52.489Z,1006.87
2016-05-24T04:07:52.476Z,1006.9
2016-05-24T04:08:52.463Z,1006.85
2016-05-24T04:09:52.450Z,1006.84
2016-05-24T04:10:52.438Z,1006.88
2016-05-24T04:11:52.425Z,1006.87
2016-05-24T04:12:52.411Z,1006.87
2016-05-24T04:13:52.383Z,1006.89
2016-05-24T04:14:52.369Z,1006.89
2016-05-24T04:15:52.357Z,1006.87
2016-05-24T04:16:52.345Z,1006.88
2016-05-24T04:17:52.332Z,1006.89
2016-05-24T04:18:52.319Z,1006.9
2016-05-24T04:19:52.290Z,1006.89
2016-05-24T04:20:52.276Z,1006.9
2016-05-24T04:21:52.264Z,1006.94
2016-05-24T04:22:52.251Z,1006.93
2016-05-24T04:23:52.238Z,1006.95
2016-05-24T04:24:52.351Z,1006.97
2016-05-24T04:25:52.212Z,1006.97
2016-05-24T04:26:52.199Z,1006.94
2016-05-24T04:27:52.170Z,1006.99
2016-05-24T04:28:52.158Z,1006.88
2016-05-24T04:29:52.676Z,1006.98
2016-05-24T04:30:52.132Z,1006.91
2016-05-24T04:31:52.103Z,1006.91
2016-05-24T04:32:52.090Z,1006.87
2016-05-24T04:33:52.093Z,1006.89
2016-05-24T04:34:52.065Z,1006.85
2016-05-24T04:35:52.051Z,1006.88
2016-05-24T04:36:52.039Z,1006.85
2016-05-24T04:37:52.025Z,1006.87
2016-05-24T04:38:51.997Z,1006.89
2016-05-24T04:39:51.984Z,1006.92
2016-05-24T04:40:51.987Z,1006.96
2016-05-24T04:41:51.958Z,1006.95
2016-05-24T04:42:51.945Z,1006.94
2016-05-24T04:43:51.932Z,1006.9
2016-05-24T04:44:51.920Z,1006.95
2016-05-24T04:45:51.891Z,1006.96
2016-05-24T04:46:51.878Z,1006.94
2016-05-24T04:47:51.865Z,1006.94
2016-05-24T04:48:51.852Z,1006.94
2016-05-24T04:49:51.838Z,1006.92
2016-05-24T04:50:51.827Z,1006.96
2016-05-24T04:51:51.814Z,1006.99
2016-05-24T04:52:51.785Z,1006.99
2016-05-24T04:53:51.771Z,1006.99
2016-05-24T04:54:51.759Z,1007.03
2016-05-24T04:55:51.746Z,1007.02
2016-05-24T04:56:51.733Z,1007.02
2016-05-24T04:57:51.721Z,1007.04
2016-05-24T04:58:51.707Z,1007.05
2016-05-24T04:59:51.678Z,1007.11
2016-05-24T05:00:51.698Z,1007.13
2016-05-24T05:01:51.653Z,1007.13
2016-05-24T05:02:51.640Z,1007.19
2016-05-24T05:03:51.643Z,1007.15
2016-05-24T05:04:51.598Z,1007.13
2016-05-24T05:05:51.586Z,1007.19
2016-05-24T05:06:51.572Z,1007.21
2016-05-24T05:07:51.559Z,1007.21
2016-05-24T05:08:51.547Z,1007.22
2016-05-24T05:09:51.534Z,1007.24
2016-05-24T05:10:51.505Z,1007.26
2016-05-24T05:11:51.492Z,1007.26
2016-05-24T05:12:51.480Z,1007.25
2016-05-24T05:13:51.467Z,1007.24
2016-05-24T05:14:51.453Z,1007.23
2016-05-24T05:15:51.441Z,1007.18
2016-05-24T05:16:51.411Z,1007.24
2016-05-24T05:17:51.399Z,1007.2
2016-05-24T05:18:51.386Z,1007.16
2016-05-24T05:19:51.374Z,1007.16
2016-05-24T05:20:51.360Z,1007.16
2016-05-24T05:21:51.347Z,1007.18
2016-05-24T05:22:51.319Z,1007.18
2016-05-24T05:23:51.322Z,1007.17
2016-05-24T05:24:51.307Z,1007.19
2016-05-24T05:25:51.280Z,1007.17
2016-05-24T05:26:51.268Z,1007.21
2016-05-24T05:27:51.254Z,1007.26
2016-05-24T05:28:51.240Z,1007.27
2016-05-24T05:29:51.228Z,1007.27
2016-05-24T05:30:51.199Z,1007.26
2016-05-24T05:31:51.187Z,1007.29
2016-05-24T05:32:51.173Z,1007.27
2016-05-24T05:33:51.162Z,1007.29
2016-05-24T05:34:51.148Z,1007.35
2016-05-24T05:35:51.134Z,1007.3
2016-05-24T05:36:51.123Z,1007.33
2016-05-24T05:37:51.093Z,1007.27
2016-05-24T05:38:51.080Z,1007.29
2016-05-24T05:39:51.067Z,1007.26
2016-05-24T05:40:51.055Z,1007.23
2016-05-24T05:41:51.042Z,1007.25
2016-05-24T05:42:51.028Z,1007.26
2016-05-24T05:43:51.000Z,1007.26
2016-05-24T05:44:50.987Z,1007.28
2016-05-24T05:45:51.005Z,1007.27
2016-05-24T05:46:50.961Z,1007.3
2016-05-24T05:47:50.948Z,1007.28
2016-05-24T05:48:50.935Z,1007.38
2016-05-24T05:49:50.923Z,1007.35
2016-05-24T05:50:50.894Z,1007.4
2016-05-24T05:51:50.881Z,1007.41
2016-05-24T05:52:50.868Z,1007.41
2016-05-24T05:53:50.871Z,1007.43
2016-05-24T05:54:50.842Z,1007.44
2016-05-24T05:55:50.829Z,1007.48
2016-05-24T05:56:50.816Z,1007.46
2016-05-24T05:57:50.804Z,1007.5
2016-05-24T05:58:50.790Z,1007.52
2016-05-24T05:59:50.762Z,1007.48
2016-05-24T06:00:50.749Z,1007.5
2016-05-24T06:01:50.736Z,1007.5
2016-05-24T06:02:50.723Z,1007.53
2016-05-24T06:03:50.709Z,1007.55
2016-05-24T06:04:50.698Z,1007.52
2016-05-24T06:05:50.668Z,1007.52
2016-05-24T06:06:50.656Z,1007.55
2016-05-24T06:07:50.642Z,1007.55
2016-05-24T06:08:50.630Z,1007.55
2016-05-24T06:09:50.616Z,1007.56
2016-05-24T06:10:50.588Z,1007.59
2016-05-24T06:11:50.592Z,1007.57
2016-05-24T06:12:50.625Z,1007.57
2016-05-24T06:13:50.564Z,1007.58
2016-05-24T06:14:50.834Z,1007.54
2016-05-24T06:15:50.524Z,1007.59
2016-05-24T06:16:52.401Z,1007.55
2016-05-24T06:17:50.841Z,1007.57
2016-05-24T06:18:50.469Z,1007.57
2016-05-24T06:19:50.456Z,1007.58
2016-05-24T06:20:50.444Z,1007.55
2016-05-24T06:21:50.430Z,1007.58
2016-05-24T06:22:50.418Z,1007.58
2016-05-24T06:23:50.404Z,1007.53
2016-05-24T06:24:50.391Z,1007.51
2016-05-24T06:25:50.379Z,1007.53
2016-05-24T06:26:50.350Z,1007.54
2016-05-24T06:27:50.337Z,1007.55
2016-05-24T06:28:50.324Z,1007.54
2016-05-24T06:29:50.312Z,1007.53
2016-05-24T06:30:50.298Z,1007.55
2016-05-24T06:31:50.285Z,1007.62
2016-05-24T06:32:50.273Z,1007.59
2016-05-24T06:33:50.260Z,1007.57
2016-05-24T06:34:50.231Z,1007.55
2016-05-24T06:35:50.218Z,1007.59
2016-05-24T06:36:50.206Z,1007.57
2016-05-24T06:37:50.192Z,1007.59
2016-05-24T06:38:50.179Z,1007.6
2016-05-24T06:39:50.167Z,1007.61
2016-05-24T06:40:50.154Z,1007.64
2016-05-24T06:41:50.125Z,1007.66
2016-05-24T06:42:50.111Z,1007.7
2016-05-24T06:43:50.099Z,1007.74
2016-05-24T06:44:50.086Z,1007.7
2016-05-24T06:45:50.073Z,1007.74
2016-05-24T06:46:50.061Z,1007.73
2016-05-24T06:47:50.047Z,1007.74
2016-05-24T06:48:50.034Z,1007.74
2016-05-24T06:49:50.022Z,1007.71
2016-05-24T06:50:49.994Z,1007.72
2016-05-24T06:51:49.980Z,1007.73
2016-05-24T06:52:49.967Z,1007.74
2016-05-24T06:53:49.954Z,1007.69
2016-05-24T06:54:49.941Z,1007.72
2016-05-24T06:55:49.928Z,1007.72
2016-05-24T06:56:49.915Z,1007.71
2016-05-24T06:57:49.902Z,1007.68
2016-05-24T06:58:49.890Z,1007.69
2016-05-24T06:59:50.221Z,1007.7
2016-05-24T07:00:50.146Z,1007.7
2016-05-24T07:01:49.835Z,1007.76
2016-05-24T07:02:49.838Z,1007.72
2016-05-24T07:03:49.809Z,1007.69
2016-05-24T07:04:49.796Z,1007.66
2016-05-24T07:05:49.784Z,1007.71
2016-05-24T07:06:49.770Z,1007.65
2016-05-24T07:07:49.757Z,1007.68
2016-05-24T07:08:49.729Z,1007.67
2016-05-24T07:09:49.716Z,1007.71
2016-05-24T07:10:49.703Z,1007.68
2016-05-24T07:11:49.690Z,1007.72
2016-05-24T07:12:49.678Z,1007.73
2016-05-24T07:13:49.665Z,1007.76
2016-05-24T07:14:49.651Z,1007.76
2016-05-24T07:15:49.638Z,1007.77
2016-05-24T07:16:49.625Z,1007.74
2016-05-24T07:17:49.597Z,1007.76
2016-05-24T07:18:49.599Z,1007.81
2016-05-24T07:19:49.571Z,1007.74
2016-05-24T07:20:49.558Z,1007.78
2016-05-24T07:21:49.545Z,1007.76
2016-05-24T07:22:49.532Z,1007.77
2016-05-24T07:23:49.519Z,1007.79
2016-05-24T07:24:49.506Z,1007.76
2016-05-24T07:25:49.494Z,1007.79
2016-05-24T07:26:49.480Z,1007.82
2016-05-24T07:27:49.468Z,1007.87
2016-05-24T07:28:49.439Z,1007.81
2016-05-24T07:29:49.426Z,1007.8
2016-05-24T07:30:49.413Z,1007.79
2016-05-24T07:31:49.399Z,1007.76
2016-05-24T07:32:49.387Z,1007.77
2016-05-24T07:33:49.374Z,1007.8
2016-05-24T07:34:49.362Z,1007.74
2016-05-24T07:35:49.348Z,1007.75
2016-05-24T07:36:49.335Z,1007.71
2016-05-24T07:37:49.307Z,1007.74
2016-05-24T07:38:49.310Z,1007.74
2016-05-24T07:39:49.296Z,1007.74
2016-05-24T07:40:49.268Z,1007.74
2016-05-24T07:41:49.255Z,1007.76
2016-05-24T07:42:49.242Z,1007.78
2016-05-24T07:43:49.245Z,1007.79
2016-05-24T07:44:49.309Z,1007.82
2016-05-24T07:45:49.720Z,1007.84
2016-05-24T07:46:49.190Z,1007.86
2016-05-24T07:47:49.177Z,1007.88
2016-05-24T07:48:49.150Z,1007.91
2016-05-24T07:49:49.183Z,1007.94
2016-05-24T07:50:49.139Z,1007.96
2016-05-24T07:51:49.204Z,1007.94
2016-05-24T07:52:49.097Z,1007.94
2016-05-24T07:53:49.084Z,1007.92
2016-05-24T07:54:49.071Z,1007.85
2016-05-24T07:55:49.058Z,1007.86
2016-05-24T07:56:49.046Z,1007.88
2016-05-24T07:57:49.033Z,1007.88
2016-05-24T07:58:49.019Z,1007.86
2016-05-24T07:59:49.007Z,1007.87
2016-05-24T08:00:48.993Z,1007.88
2016-05-24T08:01:49.059Z,1007.87
2016-05-24T08:02:48.952Z,1007.84
2016-05-24T08:03:49.033Z,1007.86
2016-05-24T08:04:48.927Z,1007.8
2016-05-24T08:05:48.913Z,1007.84
2016-05-24T08:06:48.901Z,1007.86
2016-05-24T08:07:48.887Z,1007.83
2016-05-24T08:08:48.874Z,1007.84
2016-05-24T08:09:48.862Z,1007.8
2016-05-24T08:10:48.849Z,1007.78
2016-05-24T08:11:48.836Z,1007.82
2016-05-24T08:12:48.823Z,1007.79
2016-05-24T08:13:48.810Z,1007.8
2016-05-24T08:14:48.812Z,1007.77
2016-05-24T08:15:48.847Z,1007.75
2016-05-24T08:16:48.756Z,1007.73
2016-05-24T08:17:48.743Z,1007.7
2016-05-24T08:18:48.730Z,1007.74
2016-05-24T08:19:48.716Z,1007.73
2016-05-24T08:20:48.703Z,1007.71
2016-05-24T08:21:48.692Z,1007.74
2016-05-24T08:22:48.678Z,1007.74
2016-05-24T08:23:48.665Z,1007.72
2016-05-24T08:24:48.653Z,1007.73
2016-05-24T08:25:48.639Z,1007.77
2016-05-24T08:26:48.626Z,1007.78
2016-05-24T08:27:48.613Z,1007.78
2016-05-24T08:28:48.600Z,1007.76
2016-05-24T08:29:48.572Z,1007.77
2016-05-24T08:30:48.558Z,1007.76
2016-05-24T08:31:48.546Z,1007.73
2016-05-24T08:32:48.533Z,1007.79
2016-05-24T08:33:48.520Z,1007.76
2016-05-24T08:34:48.507Z,1007.76
2016-05-24T08:35:48.494Z,1007.76
2016-05-24T08:36:48.482Z,1007.79
2016-05-24T08:37:48.468Z,1007.81
2016-05-24T08:38:48.455Z,1007.85
2016-05-24T08:39:48.442Z,1007.85
2016-05-24T08:40:48.429Z,1007.82
2016-05-24T08:41:48.417Z,1007.83
2016-05-24T08:42:48.404Z,1007.88
2016-05-24T08:43:48.391Z,1007.83
2016-05-24T08:44:48.378Z,1007.85
2016-05-24T08:45:48.365Z,1007.82
2016-05-24T08:46:48.336Z,1007.78
2016-05-24T08:47:48.323Z,1007.82
2016-05-24T08:48:48.310Z,1007.81
2016-05-24T08:49:48.297Z,1007.82
2016-05-24T08:50:48.301Z,1007.84
2016-05-24T08:51:48.272Z,1007.87
2016-05-24T08:52:48.274Z,1007.81
2016-05-24T08:53:48.261Z,1007.81
2016-05-24T08:54:48.233Z,1007.77
2016-05-24T08:55:48.313Z,1007.81
2016-05-24T08:56:48.208Z,1007.75
2016-05-24T08:57:48.194Z,1007.76
2016-05-24T08:58:48.181Z,1007.82
2016-05-24T08:59:48.371Z,1007.79
2016-05-24T09:00:49.218Z,1007.8
2016-05-24T09:01:48.205Z,1007.83
2016-05-24T09:02:48.129Z,1007.85
2016-05-24T09:03:48.117Z,1007.84
2016-05-24T09:04:48.135Z,1007.82
2016-05-24T09:05:48.074Z,1007.83
2016-05-24T09:06:48.062Z,1007.8
2016-05-24T09:07:48.049Z,1007.78
2016-05-24T09:08:48.036Z,1007.78
2016-05-24T09:09:48.038Z,1007.76
2016-05-24T09:10:48.010Z,1007.78
2016-05-24T09:11:47.998Z,1007.74
2016-05-24T09:12:47.985Z,1007.74
2016-05-24T09:13:47.971Z,1007.69
2016-05-24T09:14:47.959Z,1007.69
2016-05-24T09:15:47.946Z,1007.73
2016-05-24T09:16:47.932Z,1007.78
2016-05-24T09:17:47.920Z,1007.77
2016-05-24T09:18:47.937Z,1007.78
2016-05-24T09:19:47.894Z,1007.83
2016-05-24T09:20:49.037Z,1007.81
2016-05-24T09:21:47.853Z,1007.84
2016-05-24T09:22:47.855Z,1007.86
2016-05-24T09:23:47.826Z,1007.84
2016-05-24T09:24:47.829Z,1007.87
2016-05-24T09:25:47.817Z,1007.9
2016-05-24T09:26:47.788Z,1007.91
2016-05-24T09:27:47.774Z,1007.91
2016-05-24T09:28:47.762Z,1007.89
2016-05-24T09:29:47.749Z,1007.96
2016-05-24T09:30:47.736Z,1007.95
2016-05-24T09:31:47.739Z,1007.92
2016-05-24T09:32:47.710Z,1007.94
2016-05-24T09:33:47.713Z,1007.95
2016-05-24T09:34:47.685Z,1008.01
2016-05-24T09:35:47.671Z,1007.96
2016-05-24T09:36:47.657Z,1008.01
2016-05-24T09:37:47.646Z,1008
2016-05-24T09:38:47.632Z,1008.02
2016-05-24T09:39:47.619Z,1008.01
2016-05-24T09:40:47.607Z,1008.03
2016-05-24T09:41:47.578Z,1008.03
2016-05-24T09:42:47.565Z,1008.04
2016-05-24T09:43:47.552Z,1008.05
2016-05-24T09:44:47.539Z,1008.07
2016-05-24T09:45:47.526Z,1008.06
2016-05-24T09:46:47.512Z,1008.12
2016-05-24T09:47:47.516Z,1008.09
2016-05-24T09:48:47.535Z,1008.06
2016-05-24T09:49:47.489Z,1008.11
2016-05-24T09:50:47.462Z,1008.08
2016-05-24T09:51:47.448Z,1008.11
2016-05-24T09:52:47.436Z,1008.11
2016-05-24T09:53:47.423Z,1008.09
2016-05-24T09:54:47.409Z,1008.06
2016-05-24T09:55:47.397Z,1008.06
2016-05-24T09:56:47.384Z,1008.05
2016-05-24T09:57:47.371Z,1008.04
2016-05-24T09:58:47.358Z,1008.04
2016-05-24T09:59:47.345Z,1008.02
2016-05-24T10:00:47.333Z,1008.03
2016-05-24T10:01:47.319Z,1007.99
2016-05-24T10:02:47.291Z,1007.94
2016-05-24T10:03:47.278Z,1008
2016-05-24T10:04:47.265Z,1008.02
2016-05-24T10:05:47.251Z,1008.03
2016-05-24T10:06:47.252Z,1008.03
2016-05-24T10:07:47.262Z,1008.03
2016-05-24T10:08:47.270Z,1008.06
2016-05-24T10:09:47.279Z,1008.08
2016-05-24T10:10:47.336Z,1008.09
2016-05-24T10:11:47.288Z,1008.09
2016-05-24T10:12:47.299Z,1008.09
2016-05-24T10:13:47.279Z,1008.1
2016-05-24T10:14:47.273Z,1008.07
2016-05-24T10:15:47.270Z,1008.08
2016-05-24T10:16:47.261Z,1008.05
2016-05-24T10:17:47.251Z,1008.05
2016-05-24T10:18:47.241Z,1008.05
2016-05-24T10:19:47.230Z,1008.06
2016-05-24T10:20:47.221Z,1008.07
2016-05-24T10:21:47.209Z,1008.06
2016-05-24T10:22:47.197Z,1008.02
2016-05-24T10:23:47.186Z,1007.99
2016-05-24T10:24:47.173Z,1008.03
2016-05-24T10:25:47.161Z,1008.02
2016-05-24T10:26:47.150Z,1008.01
2016-05-24T10:27:47.122Z,1008.01
2016-05-24T10:28:47.109Z,1008
2016-05-24T10:29:47.096Z,1007.99
2016-05-24T10:30:47.084Z,1008.01
2016-05-24T10:31:47.196Z,1008.07
2016-05-24T10:32:47.058Z,1007.99
2016-05-24T10:33:47.045Z,1008.05
2016-05-24T10:34:47.032Z,1008.02
2016-05-24T10:35:47.019Z,1008.02
2016-05-24T10:36:48.943Z,1007.96
2016-05-24T10:37:46.993Z,1008.03
2016-05-24T10:38:46.981Z,1008.02
2016-05-24T10:39:46.967Z,1008.01
2016-05-24T10:40:46.954Z,1007.99
2016-05-24T10:41:46.942Z,1007.97
2016-05-24T10:42:46.928Z,1007.96
2016-05-24T10:43:46.916Z,1007.99
2016-05-24T10:44:46.903Z,1007.96
2016-05-24T10:45:46.889Z,1007.96
2016-05-24T10:46:46.877Z,1007.95
2016-05-24T10:47:46.864Z,1007.94
2016-05-24T10:48:46.851Z,1007.95
2016-05-24T10:49:46.838Z,1007.96
2016-05-24T10:50:46.825Z,1008
2016-05-24T10:51:48.250Z,1007.97
2016-05-24T10:52:46.783Z,1007.97
2016-05-24T10:53:46.786Z,1007.9
2016-05-24T10:54:46.773Z,1007.93
2016-05-24T10:55:46.760Z,1007.98
2016-05-24T10:56:48.607Z,1007.96
2016-05-24T10:57:46.719Z,1007.94
2016-05-24T10:58:46.706Z,1007.95
2016-05-24T10:59:46.912Z,1007.92
2016-05-24T11:00:46.679Z,1007.97
2016-05-24T11:01:48.527Z,1007.96
2016-05-24T11:02:46.701Z,1007.98
2016-05-24T11:03:46.641Z,1007.97
2016-05-24T11:04:46.629Z,1007.95
2016-05-24T11:05:46.646Z,1007.96
2016-05-24T11:06:46.603Z,1008.02
2016-05-24T11:07:46.606Z,1007.98
2016-05-24T11:08:46.576Z,1008
2016-05-24T11:09:46.564Z,1007.99
2016-05-24T11:10:46.551Z,1007.97
2016-05-24T11:11:46.537Z,1007.99
2016-05-24T11:12:46.540Z,1007.97
2016-05-24T11:13:46.527Z,1007.93
2016-05-24T11:14:46.500Z,1007.94
2016-05-24T11:15:46.486Z,1007.94
2016-05-24T11:16:47.113Z,1007.97
2016-05-24T11:17:46.476Z,1007.97
2016-05-24T11:18:46.447Z,1007.98
2016-05-24T11:19:46.434Z,1007.99
2016-05-24T11:20:46.422Z,1007.99
2016-05-24T11:21:46.502Z,1007.91
2016-05-24T11:22:46.396Z,1007.96
2016-05-24T11:23:46.383Z,1007.97
2016-05-24T11:24:46.369Z,1007.93
2016-05-24T11:25:46.372Z,1007.91
2016-05-24T11:26:46.344Z,1007.92
2016-05-24T11:27:46.330Z,1007.94
2016-05-24T11:28:46.318Z,1007.92
2016-05-24T11:29:46.305Z,1007.94
2016-05-24T11:30:46.324Z,1007.94
2016-05-24T11:31:46.295Z,1007.9
2016-05-24T11:32:46.298Z,1007.9
2016-05-24T11:33:46.254Z,1007.9
2016-05-24T11:34:46.241Z,1007.88
2016-05-24T11:35:46.227Z,1007.87
2016-05-24T11:36:46.214Z,1007.86
2016-05-24T11:37:46.201Z,1007.86
2016-05-24T11:38:46.189Z,1007.86
2016-05-24T11:39:46.254Z,1007.81
2016-05-24T11:40:46.162Z,1007.84
2016-05-24T11:41:46.150Z,1007.8
2016-05-24T11:42:46.137Z,1007.79
2016-05-24T11:43:46.123Z,1007.79
2016-05-24T11:44:46.111Z,1007.76
2016-05-24T11:45:46.097Z,1007.8
2016-05-24T11:46:46.085Z,1007.81
2016-05-24T11:47:46.072Z,1007.77
2016-05-24T11:48:46.059Z,1007.77
2016-05-24T11:49:46.047Z,1007.76
2016-05-24T11:50:46.050Z,1007.74
2016-05-24T11:51:46.035Z,1007.77
2016-05-24T11:52:46.023Z,1007.75
2016-05-24T11:53:45.995Z,1007.77
2016-05-24T11:54:46.028Z,1007.79
2016-05-24T11:55:45.985Z,1007.75
2016-05-24T11:56:45.971Z,1007.77
2016-05-24T11:57:45.958Z,1007.72
2016-05-24T11:58:45.946Z,1007.73
2016-05-24T11:59:45.916Z,1007.71
2016-05-24T12:00:46.482Z,1007.67
2016-05-24T12:01:45.907Z,1007.61
2016-05-24T12:02:45.893Z,1007.63
2016-05-24T12:03:45.881Z,1007.6
2016-05-24T12:04:45.868Z,1007.64
2016-05-24T12:05:45.855Z,1007.65
2016-05-24T12:06:45.842Z,1007.64
2016-05-24T12:07:45.829Z,1007.62
2016-05-24T12:08:45.832Z,1007.66